Terminal Aerodrome Forecast
Issued by NWS

Home | Current Version | Previous Version | Text Only | Print | Product List | Glossary On
Versions: 1 2 3 4 5 6 7 8 9 10 11 12 13 14 15 16
000
FTUS41 KPBZ 242300
TAFBVI
TAF
KBVI 242336Z 2500/2524 24007KT 4SM -SHSN BR OVC012
      TEMPO 2500/2504 2SM -FZDZ BR OVC006
     FM250400 26007KT 3SM -SHSN OVC008
     FM251600 VRB03KT 2SM -SN OVC007
     FM252200 04005KT 3/4SM -SN OVC004
      AMD NOT SKED=

USA.gov is the U.S. government's official web portal to all federal, state and local government web resources and services.